createdAt,value
2018-10-19T00:00:30.969Z,59.53
2018-10-19T00:01:30.994Z,59.53
2018-10-19T00:02:31.030Z,59.63
2018-10-19T00:03:31.010Z,59.53
2018-10-19T00:04:31.344Z,59.70
2018-10-19T00:05:31.179Z,59.70
2018-10-19T00:06:31.153Z,59.22
2018-10-19T00:07:31.137Z,59.51
2018-10-19T00:08:31.218Z,59.41
2018-10-19T00:09:31.249Z,59.89
2018-10-19T00:10:31.288Z,59.70
2018-10-19T00:11:31.712Z,59.60
2018-10-19T00:12:31.301Z,59.51
2018-10-19T00:13:31.429Z,59.70
2018-10-19T00:14:31.411Z,59.51
2018-10-19T00:15:31.392Z,59.51
2018-10-19T00:16:31.469Z,59.70
2018-10-19T00:17:31.551Z,59.41
2018-10-19T00:18:31.785Z,59.80
2018-10-19T00:19:31.564Z,59.60
2018-10-19T00:20:31.601Z,59.60
2018-10-19T00:21:31.627Z,59.70
2018-10-19T00:22:31.610Z,59.60
2018-10-19T00:23:31.640Z,59.70
2018-10-19T00:24:32.024Z,59.70
2018-10-19T00:25:31.705Z,59.60
2018-10-19T00:26:31.785Z,59.22
2018-10-19T00:27:31.817Z,59.41
2018-10-19T00:28:31.849Z,59.22
2018-10-19T00:29:31.831Z,58.83
2018-10-19T00:30:32.264Z,58.83
2018-10-19T00:31:31.895Z,58.83
2018-10-19T00:32:31.976Z,58.83
2018-10-19T00:33:32.038Z,58.83
2018-10-19T00:34:32.041Z,58.93
2018-10-19T00:35:32.024Z,58.93
2018-10-19T00:36:32.422Z,58.93
2018-10-19T00:37:32.130Z,58.73
2018-10-19T00:38:32.213Z,58.73
2018-10-19T00:39:32.147Z,59.00
2018-10-19T00:40:32.235Z,59.02
2018-10-19T00:41:32.257Z,58.93
2018-10-19T00:42:32.295Z,58.73
2018-10-19T00:43:32.574Z,58.70
2018-10-19T00:44:32.300Z,58.73
2018-10-19T00:45:32.381Z,59.00
2018-10-19T00:46:32.421Z,59.00
2018-10-19T00:47:32.397Z,59.00
2018-10-19T00:48:32.436Z,58.70
2018-10-19T00:49:32.472Z,59.00
2018-10-19T00:50:32.793Z,59.00
2018-10-19T00:51:32.521Z,59.09
2018-10-19T00:52:32.601Z,58.51
2018-10-19T00:53:32.581Z,58.80
2018-10-19T00:54:32.723Z,58.90
2018-10-19T00:55:32.695Z,58.42
2018-10-19T00:56:32.738Z,59.00
2018-10-19T00:57:33.008Z,58.61
2018-10-19T00:58:32.787Z,58.61
2018-10-19T00:59:32.771Z,58.42
2018-10-19T01:00:32.801Z,58.42
2018-10-19T01:01:32.835Z,58.70
2018-10-19T01:02:33.012Z,58.51
2018-10-19T01:03:32.944Z,59.00
2018-10-19T01:04:33.282Z,58.70
2018-10-19T01:05:33.009Z,58.80
2018-10-19T01:06:32.997Z,58.70
2018-10-19T01:07:33.073Z,58.90
2018-10-19T01:08:33.109Z,58.42
2018-10-19T01:09:33.083Z,58.42
2018-10-19T01:10:33.165Z,58.70
2018-10-19T01:12:33.529Z,58.70
2018-10-19T01:13:33.255Z,58.42
2018-10-19T01:14:33.275Z,58.61
2018-10-19T01:15:33.267Z,58.51
2018-10-19T01:16:33.351Z,58.61
2018-10-19T01:17:33.379Z,58.61
2018-10-19T01:18:33.412Z,58.58
2018-10-19T01:19:33.795Z,58.51
2018-10-19T01:20:33.475Z,58.51
2018-10-19T01:21:33.456Z,58.48
2018-10-19T01:22:33.539Z,58.58
2018-10-19T01:23:33.621Z,58.58
2018-10-19T01:24:33.547Z,58.87
2018-10-19T01:25:33.633Z,58.90
2018-10-19T01:26:33.911Z,58.58
2018-10-19T01:27:33.759Z,58.42
2018-10-19T01:28:33.721Z,58.51
2018-10-19T01:29:33.702Z,58.39
2018-10-19T01:30:33.789Z,58.58
2018-10-19T01:31:33.764Z,58.77
2018-10-19T01:32:33.848Z,58.48
2018-10-19T01:33:34.127Z,58.87
2018-10-19T01:34:33.913Z,58.39
2018-10-19T01:35:33.938Z,58.58
2018-10-19T01:36:34.069Z,58.68
2018-10-19T01:37:33.950Z,58.87
2018-10-19T01:38:33.980Z,58.77
2018-10-19T01:39:34.061Z,58.19
2018-10-19T01:40:34.393Z,58.68
2018-10-19T01:41:34.126Z,58.87
2018-10-19T01:42:34.110Z,58.48
2018-10-19T01:43:34.136Z,58.58
2018-10-19T01:44:34.217Z,58.10
2018-10-19T01:45:34.249Z,58.58
2018-10-19T01:46:34.280Z,58.87
2018-10-19T01:47:34.560Z,58.68
2018-10-19T01:48:34.292Z,58.87
2018-10-19T01:49:34.333Z,58.68
2018-10-19T01:50:34.452Z,58.68
2018-10-19T01:51:34.434Z,58.77
2018-10-19T01:52:34.566Z,58.68
2018-10-19T01:53:34.455Z,58.39
2018-10-19T01:54:34.854Z,58.68
2018-10-19T01:55:34.513Z,58.97
2018-10-19T01:56:34.541Z,58.39
2018-10-19T01:57:34.618Z,58.58
2018-10-19T01:58:34.601Z,58.77
2018-10-19T01:59:34.630Z,58.68
2018-10-19T02:00:34.712Z,58.87
2018-10-19T02:01:35.045Z,58.68
2018-10-19T02:02:34.875Z,58.29
2018-10-19T02:04:34.839Z,58.68
2018-10-19T02:05:34.871Z,58.77
2018-10-19T02:06:34.846Z,58.48
2018-10-19T02:07:34.881Z,58.10
2018-10-19T02:08:35.261Z,58.29
2018-10-19T02:09:35.671Z,58.58
2018-10-19T02:10:35.023Z,58.77
2018-10-19T02:11:34.998Z,58.10
2018-10-19T02:12:35.079Z,58.19
2018-10-19T02:14:35.094Z,58.19
2018-10-19T02:15:35.524Z,58.19
2018-10-19T02:16:35.203Z,58.58
2018-10-19T02:17:35.186Z,58.26
2018-10-19T02:18:35.214Z,58.07
2018-10-19T02:19:35.243Z,58.17
2018-10-19T02:20:35.338Z,58.07
2018-10-19T02:21:35.355Z,58.17
2018-10-19T02:22:35.644Z,58.17
2018-10-19T02:23:35.367Z,58.36
2018-10-19T02:24:35.447Z,58.17
2018-10-19T02:25:35.530Z,58.10
2018-10-19T02:26:35.569Z,58.07
2018-10-19T02:27:35.489Z,58.17
2018-10-19T02:28:35.529Z,58.26
2018-10-19T02:29:35.901Z,58.17
2018-10-19T02:30:35.653Z,58.26
2018-10-19T02:31:35.617Z,58.07
2018-10-19T02:32:35.694Z,58.84
2018-10-19T02:34:35.770Z,58.75
2018-10-19T02:35:35.836Z,58.84
2018-10-19T02:36:36.120Z,58.94
2018-10-19T02:37:35.855Z,58.45
2018-10-19T02:38:35.890Z,58.55
2018-10-19T02:39:36.228Z,58.07
2018-10-19T02:40:35.943Z,58.07
2018-10-19T02:41:35.971Z,58.55
2018-10-19T02:42:36.251Z,58.26
2018-10-19T02:43:36.038Z,58.17
2018-10-19T02:44:36.066Z,58.17
2018-10-19T02:45:36.189Z,57.97
2018-10-19T02:46:36.074Z,58.17
2018-10-19T02:47:36.172Z,58.07
2018-10-19T02:48:36.786Z,58.17
2018-10-19T02:49:36.212Z,58.26
2018-10-19T02:50:36.548Z,58.36
2018-10-19T02:51:36.276Z,58.36
2018-10-19T02:52:36.312Z,58.45
2018-10-19T02:53:36.336Z,58.26
2018-10-19T02:54:36.669Z,58.26
2018-10-19T02:55:36.400Z,58.36
2018-10-19T02:56:36.379Z,58.17
2018-10-19T02:57:36.458Z,58.26
2018-10-19T02:58:36.495Z,58.26
2018-10-19T02:59:36.466Z,58.36
2018-10-19T03:00:36.555Z,58.26
2018-10-19T03:02:40.017Z,58.26
2018-10-19T03:03:40.109Z,58.26
2018-10-19T03:04:40.084Z,58.07
2018-10-19T03:05:40.058Z,58.17
2018-10-19T03:06:40.139Z,58.26
2018-10-19T03:07:40.147Z,58.07
2018-10-19T03:08:40.455Z,58.36
2018-10-19T03:09:40.181Z,58.17
2018-10-19T03:10:40.260Z,58.55
2018-10-19T03:11:40.380Z,58.26
2018-10-19T03:12:40.273Z,58.55
2018-10-19T03:13:40.302Z,58.26
2018-10-19T03:14:40.334Z,58.07
2018-10-19T03:15:40.682Z,58.17
2018-10-19T03:16:40.442Z,58.55
2018-10-19T03:17:40.430Z,58.55
2018-10-19T03:18:40.464Z,58.94
2018-10-19T03:19:40.536Z,58.65
2018-10-19T03:20:40.568Z,58.55
2018-10-19T03:22:40.628Z,58.65
2018-10-19T03:23:40.916Z,58.84
2018-10-19T03:25:40.721Z,58.75
2018-10-19T03:26:40.699Z,58.65
2018-10-19T03:27:40.780Z,58.55
2018-10-19T03:28:40.760Z,58.36
2018-10-19T03:29:40.841Z,58.55
2018-10-19T03:30:41.266Z,58.45
2018-10-19T03:31:40.901Z,58.55
2018-10-19T03:32:40.878Z,59.03
2018-10-19T03:33:40.913Z,58.94
2018-10-19T03:34:40.940Z,59.03
2018-10-19T03:35:41.023Z,58.94
2018-10-19T03:36:41.006Z,58.55
2018-10-19T03:38:41.364Z,58.75
2018-10-19T03:39:41.093Z,58.45
2018-10-19T03:40:41.170Z,58.55
2018-10-19T03:41:41.187Z,58.75
2018-10-19T03:42:41.232Z,58.65
2018-10-19T03:43:41.221Z,58.75
2018-10-19T03:44:41.299Z,58.65
2018-10-19T03:45:41.573Z,58.65
2018-10-19T03:46:41.307Z,58.94
2018-10-19T03:47:41.384Z,58.81
2018-10-19T03:48:41.370Z,58.65
2018-10-19T03:49:41.446Z,58.65
2018-10-19T03:50:41.425Z,58.94
2018-10-19T03:51:41.459Z,58.65
2018-10-19T03:52:41.792Z,58.65
2018-10-19T03:53:41.518Z,58.55
2018-10-19T03:54:41.602Z,58.65
2018-10-19T03:55:41.629Z,58.65
2018-10-19T03:57:41.640Z,58.17
2018-10-19T03:58:41.729Z,58.26
2018-10-19T04:00:42.028Z,58.45
2018-10-19T04:01:41.766Z,58.26
2018-10-19T04:02:41.794Z,58.36
2018-10-19T04:03:42.012Z,58.45
2018-10-19T04:04:41.901Z,58.04
2018-10-19T04:05:41.983Z,58.17
2018-10-19T04:06:41.962Z,58.23
2018-10-19T04:07:42.357Z,58.26
2018-10-19T04:08:41.973Z,58.36
2018-10-19T04:09:42.057Z,58.33
2018-10-19T04:10:42.034Z,58.14
2018-10-19T04:11:42.118Z,58.23
2018-10-19T04:12:42.095Z,58.04
2018-10-19T04:13:42.127Z,58.55
2018-10-19T04:14:42.454Z,58.23
2018-10-19T04:15:42.240Z,58.14
2018-10-19T04:16:42.215Z,58.17
2018-10-19T04:17:42.295Z,58.42
2018-10-19T04:18:42.284Z,58.42
2018-10-19T04:19:42.362Z,58.42
2018-10-19T04:20:42.440Z,57.65
2018-10-19T04:21:42.370Z,58.14
2018-10-19T04:22:42.399Z,58.42
2018-10-19T04:23:42.478Z,58.14
2018-10-19T04:24:42.467Z,58.33
2018-10-19T04:25:42.539Z,58.23
2018-10-19T04:26:42.524Z,58.52
2018-10-19T04:27:42.966Z,58.33
2018-10-19T04:28:42.581Z,58.33
2018-10-19T04:29:42.709Z,58.23
2018-10-19T04:30:42.690Z,58.23
2018-10-19T04:31:42.721Z,58.17
2018-10-19T04:32:42.702Z,58.42
2018-10-19T04:33:42.730Z,58.52
2018-10-19T04:35:43.097Z,58.17
2018-10-19T04:36:42.870Z,58.33
2018-10-19T04:37:42.853Z,58.33
2018-10-19T04:38:42.883Z,58.52
2018-10-19T04:39:42.977Z,57.85
2018-10-19T04:40:42.993Z,57.85
2018-10-19T04:41:43.090Z,57.85
2018-10-19T04:42:43.303Z,58.14
2018-10-19T04:43:43.092Z,58.52
2018-10-19T04:44:43.063Z,58.33
2018-10-19T04:45:43.099Z,58.14
2018-10-19T04:46:43.180Z,58.33
2018-10-19T04:47:43.300Z,58.42
2018-10-19T04:48:43.263Z,58.42
2018-10-19T04:49:43.573Z,58.23
2018-10-19T04:50:43.248Z,58.14
2018-10-19T04:51:43.280Z,58.23
2018-10-19T04:52:43.366Z,58.23
2018-10-19T04:53:43.375Z,58.42
2018-10-19T04:54:43.375Z,57.65
2018-10-19T04:55:43.399Z,57.85
2018-10-19T04:56:43.729Z,57.85
2018-10-19T04:57:43.529Z,57.56
2018-10-19T04:58:43.507Z,57.75
2018-10-19T04:59:43.570Z,57.65
2018-10-19T05:00:43.553Z,57.85
2018-10-19T05:01:43.576Z,57.65
2018-10-19T05:02:43.789Z,57.75
2018-10-19T05:03:43.941Z,58.42
2018-10-19T05:04:43.690Z,58.23
2018-10-19T05:05:43.746Z,58.33
2018-10-19T05:06:43.920Z,58.14
2018-10-19T05:07:43.839Z,58.33
2018-10-19T05:08:43.843Z,58.33
2018-10-19T05:09:43.830Z,58.23
2018-10-19T05:10:44.205Z,58.23
2018-10-19T05:11:43.933Z,58.14
2018-10-19T05:12:44.017Z,58.23
2018-10-19T05:13:43.993Z,58.33
2018-10-19T05:14:44.311Z,58.52
2018-10-19T05:15:44.055Z,58.33
2018-10-19T05:16:44.038Z,58.23
2018-10-19T05:17:44.382Z,58.42
2018-10-19T05:18:44.145Z,58.42
2018-10-19T05:19:44.175Z,58.23
2018-10-19T05:20:44.209Z,58.42
2018-10-19T05:21:44.185Z,57.94
2018-10-19T05:22:44.214Z,57.85
2018-10-19T05:23:44.544Z,57.65
2018-10-19T05:24:44.462Z,58.33
2018-10-19T05:25:44.310Z,58.23
2018-10-19T05:26:44.335Z,57.85
2018-10-19T05:27:44.365Z,57.65
2018-10-19T05:28:44.446Z,58.23
2018-10-19T05:29:44.727Z,58.23
2018-10-19T05:30:44.507Z,58.23
2018-10-19T05:31:44.559Z,57.94
2018-10-19T05:32:44.524Z,57.65
2018-10-19T05:33:44.551Z,58.23
2018-10-19T05:34:44.627Z,57.56
2018-10-19T05:35:44.908Z,58.04
2018-10-19T05:36:44.689Z,57.65
2018-10-19T05:37:44.719Z,57.85
2018-10-19T05:38:44.701Z,57.85
2018-10-19T05:39:44.805Z,58.23
2018-10-19T05:40:44.757Z,58.42
2018-10-19T05:41:44.804Z,58.62
2018-10-19T05:42:45.121Z,59.48
2018-10-19T05:43:44.961Z,59.39
2018-10-19T05:44:44.876Z,59.30
2018-10-19T05:45:44.909Z,59.30
2018-10-19T05:46:44.998Z,59.48
2018-10-19T05:47:45.019Z,59.39
2018-10-19T05:48:44.998Z,59.87
2018-10-19T05:49:45.330Z,59.97
2018-10-19T05:50:45.213Z,60.06
2018-10-19T05:51:45.140Z,59.78
2018-10-19T05:52:45.120Z,59.87
2018-10-19T05:53:45.148Z,59.78
2018-10-19T05:54:45.230Z,59.78
2018-10-19T05:55:45.262Z,59.78
2018-10-19T05:56:45.545Z,60.26
2018-10-19T05:57:45.271Z,59.78
2018-10-19T05:58:45.301Z,59.80
2018-10-19T05:59:45.390Z,60.16
2018-10-19T06:00:45.412Z,59.90
2018-10-19T06:01:45.442Z,59.68
2018-10-19T06:02:45.424Z,59.78
2018-10-19T06:03:45.753Z,59.78
2018-10-19T06:04:45.481Z,60.19
2018-10-19T06:05:45.566Z,60.10
2018-10-19T06:06:45.545Z,60.19
2018-10-19T06:07:45.620Z,59.71
2018-10-19T06:08:45.611Z,59.97
2018-10-19T06:09:45.645Z,60.19
2018-10-19T06:10:46.018Z,60.10
2018-10-19T06:11:45.741Z,60.00
2018-10-19T06:12:45.723Z,59.80
2018-10-19T06:13:45.809Z,59.90
2018-10-19T06:14:45.839Z,60.10
2018-10-19T06:15:45.864Z,60.00
2018-10-19T06:16:45.851Z,59.80
2018-10-19T06:17:46.175Z,60.00
2018-10-19T06:18:45.907Z,60.00
2018-10-19T06:19:45.935Z,60.28
2018-10-19T06:20:46.021Z,60.10
2018-10-19T06:21:46.046Z,59.80
2018-10-19T06:22:46.096Z,60.48
2018-10-19T06:23:46.106Z,60.28
2018-10-19T06:26:46.453Z,60.00
2018-10-19T06:27:46.226Z,59.90
2018-10-19T06:28:46.205Z,59.90
2018-10-19T06:29:46.236Z,59.80
2018-10-19T06:30:46.269Z,59.80
2018-10-19T06:31:46.365Z,59.80
2018-10-19T06:32:46.379Z,59.90
2018-10-19T06:33:46.770Z,59.71
2018-10-19T06:34:46.392Z,59.80
2018-10-19T06:35:46.569Z,59.90
2018-10-19T06:36:46.448Z,59.80
2018-10-19T06:37:46.533Z,59.52
2018-10-19T06:38:46.515Z,59.52
2018-10-19T06:39:46.594Z,59.42
2018-10-19T06:40:46.974Z,59.52
2018-10-19T06:41:46.606Z,59.42
2018-10-19T06:42:46.685Z,59.52
2018-10-19T06:43:46.712Z,59.32
2018-10-19T06:44:46.717Z,59.52
2018-10-19T06:45:46.771Z,59.32
2018-10-19T06:46:46.969Z,59.42
2018-10-19T06:47:46.833Z,59.42
2018-10-19T06:48:46.874Z,59.61
2018-10-19T06:49:46.845Z,59.52
2018-10-19T06:50:46.874Z,59.90
2018-10-19T06:51:47.027Z,59.61
2018-10-19T06:52:46.993Z,59.42
2018-10-19T06:53:47.273Z,59.71
2018-10-19T06:54:47.000Z,59.61
2018-10-19T06:55:47.083Z,59.80
2018-10-19T06:56:47.112Z,59.13
2018-10-19T06:57:47.091Z,59.61
2018-10-19T06:58:47.126Z,59.23
2018-10-19T06:59:47.261Z,59.13
2018-10-19T07:00:47.479Z,59.06
2018-10-19T07:01:47.209Z,59.35
2018-10-19T07:02:47.289Z,58.77
2018-10-19T07:03:47.322Z,59.16
2018-10-19T07:04:47.302Z,58.58
2018-10-19T07:05:47.522Z,58.97
2018-10-19T07:06:47.374Z,58.87
2018-10-19T07:07:47.709Z,59.16
2018-10-19T07:08:47.479Z,58.77
2018-10-19T07:09:47.505Z,59.06
2018-10-19T07:10:47.488Z,59.06
2018-10-19T07:11:47.519Z,58.77
2018-10-19T07:12:47.544Z,58.77
2018-10-19T07:13:47.629Z,58.77
2018-10-19T07:14:47.956Z,58.68
2018-10-19T07:15:47.674Z,58.77
2018-10-19T07:16:47.683Z,58.58
2018-10-19T07:17:47.698Z,58.87
2018-10-19T07:18:47.789Z,58.48
2018-10-19T07:19:47.809Z,58.87
2018-10-19T07:20:47.847Z,58.39
2018-10-19T07:21:48.237Z,58.58
2018-10-19T07:22:47.854Z,58.58
2018-10-19T07:23:47.932Z,58.58
2018-10-19T07:24:47.962Z,58.58
2018-10-19T07:25:47.946Z,58.77
2018-10-19T07:26:47.978Z,58.68
2018-10-19T07:27:48.061Z,58.68
2018-10-19T07:28:48.335Z,58.87
2018-10-19T07:29:48.070Z,58.68
2018-10-19T07:30:48.146Z,58.68
2018-10-19T07:31:48.191Z,58.77
2018-10-19T07:32:48.157Z,58.19
2018-10-19T07:33:48.195Z,58.68
2018-10-19T07:34:48.233Z,58.48
2018-10-19T07:35:48.554Z,58.10
2018-10-19T07:36:48.333Z,58.19
2018-10-19T07:37:48.316Z,58.19
2018-10-19T07:38:48.394Z,58.19
2018-10-19T07:39:48.423Z,58.10
2018-10-19T07:40:48.406Z,58.39
2018-10-19T07:41:48.740Z,58.29
2018-10-19T07:42:48.466Z,58.29
2018-10-19T07:43:48.495Z,58.00
2018-10-19T07:44:48.575Z,58.29
2018-10-19T07:45:48.610Z,58.39
2018-10-19T07:46:48.590Z,58.39
2018-10-19T07:47:49.374Z,58.29
2018-10-19T07:48:48.702Z,58.48
2018-10-19T07:49:48.681Z,58.58
2018-10-19T07:50:48.768Z,58.48
2018-10-19T07:51:48.748Z,58.58
2018-10-19T07:52:48.783Z,58.48
2018-10-19T07:53:49.112Z,58.29
2018-10-19T07:54:48.836Z,58.29
2018-10-19T07:55:48.916Z,58.19
2018-10-19T07:56:48.952Z,57.71
2018-10-19T07:57:48.981Z,57.90
2018-10-19T07:58:48.981Z,57.90
2018-10-19T07:59:49.004Z,57.71
2018-10-19T08:00:49.380Z,58.00
2018-10-19T08:01:49.117Z,57.90
2018-10-19T08:02:49.133Z,57.81
2018-10-19T08:03:49.161Z,57.42
2018-10-19T08:04:49.203Z,57.90
2018-10-19T08:05:49.225Z,57.54
2018-10-19T08:06:49.205Z,57.52
2018-10-19T08:07:49.536Z,57.62
2018-10-19T08:08:49.265Z,57.90
2018-10-19T08:09:49.347Z,57.62
2018-10-19T08:10:49.333Z,57.52
2018-10-19T08:11:49.472Z,57.71
2018-10-19T08:12:49.477Z,57.90
2018-10-19T08:13:49.487Z,57.93
2018-10-19T08:14:49.771Z,57.84
2018-10-19T08:15:49.627Z,57.71
2018-10-19T08:16:49.953Z,57.93
2018-10-19T08:17:49.675Z,57.64
2018-10-19T08:18:49.616Z,57.62
2018-10-19T08:19:49.659Z,57.26
2018-10-19T08:20:49.661Z,57.04
2018-10-19T08:21:49.754Z,57.26
2018-10-19T08:22:49.760Z,57.26
2018-10-19T08:23:49.742Z,57.45
2018-10-19T08:24:49.758Z,57.26
2018-10-19T08:25:49.802Z,57.35
2018-10-19T08:26:49.940Z,57.45
2018-10-19T08:27:50.156Z,57.26
2018-10-19T08:28:49.933Z,57.54
2018-10-19T08:29:49.912Z,57.26
2018-10-19T08:30:49.949Z,57.35
2018-10-19T08:31:50.032Z,57.26
2018-10-19T08:32:50.113Z,57.35
2018-10-19T08:33:50.039Z,57.16
2018-10-19T08:34:50.371Z,57.45
2018-10-19T08:35:50.173Z,57.16
2018-10-19T08:36:50.191Z,57.16
2018-10-19T08:37:50.164Z,56.87
2018-10-19T08:38:50.268Z,57.06
2018-10-19T08:39:50.294Z,56.77
2018-10-19T08:40:50.306Z,57.16
2018-10-19T08:41:50.815Z,57.16
2018-10-19T08:42:50.324Z,56.87
2018-10-19T08:43:50.402Z,57.26
2018-10-19T08:44:50.386Z,56.87
2018-10-19T08:45:50.413Z,56.68
2018-10-19T08:46:50.502Z,56.87
2018-10-19T08:47:50.564Z,56.68
2018-10-19T08:48:50.558Z,56.80
2018-10-19T08:49:50.586Z,56.68
2018-10-19T08:50:50.581Z,56.96
2018-10-19T08:51:50.664Z,56.90
2018-10-19T08:52:50.694Z,57.06
2018-10-19T08:53:50.669Z,57.16
2018-10-19T08:54:51.100Z,57.06
2018-10-19T08:55:50.774Z,56.51
2018-10-19T08:56:50.804Z,56.39
2018-10-19T08:57:50.914Z,56.39
2018-10-19T08:58:50.819Z,56.71
2018-10-19T08:59:50.900Z,56.32
2018-10-19T09:00:51.180Z,56.22
2018-10-19T09:01:50.913Z,56.13
2018-10-19T09:02:50.945Z,56.41
2018-10-19T09:03:51.029Z,56.41
2018-10-19T09:04:51.046Z,56.32
2018-10-19T09:05:51.224Z,56.71
2018-10-19T09:06:51.376Z,56.41
2018-10-19T09:07:51.759Z,56.41
2018-10-19T09:08:51.133Z,56.71
2018-10-19T09:09:51.750Z,56.41
2018-10-19T09:10:51.250Z,56.13
2018-10-19T09:11:51.289Z,56.22
2018-10-19T09:12:51.378Z,56.22
2018-10-19T09:13:51.596Z,56.32
2018-10-19T09:14:51.322Z,56.32
2018-10-19T09:15:51.405Z,56.32
2018-10-19T09:16:51.432Z,55.74
2018-10-19T09:17:51.497Z,56.03
2018-10-19T09:18:51.496Z,56.03
2018-10-19T09:19:51.547Z,56.32
2018-10-19T09:20:51.816Z,56.13
2018-10-19T09:21:51.550Z,56.03
2018-10-19T09:22:51.572Z,56.51
2018-10-19T09:23:51.658Z,56.32
2018-10-19T09:24:51.684Z,55.35
2018-10-19T09:25:51.665Z,55.93
2018-10-19T09:26:51.774Z,56.03
2018-10-19T09:27:51.781Z,55.55
2018-10-19T09:28:51.859Z,55.74
2018-10-19T09:29:51.874Z,55.74
2018-10-19T09:30:51.822Z,55.74
2018-10-19T09:31:51.907Z,55.55
2018-10-19T09:32:51.951Z,55.65
2018-10-19T09:33:52.386Z,55.55
2018-10-19T09:34:52.005Z,55.65
2018-10-19T09:35:52.112Z,55.93
2018-10-19T09:36:52.092Z,55.93
2018-10-19T09:37:52.310Z,55.65
2018-10-19T09:38:52.180Z,55.74
2018-10-19T09:39:52.477Z,55.65
2018-10-19T09:40:52.223Z,55.55
2018-10-19T09:41:52.181Z,55.07
2018-10-19T09:42:52.215Z,55.57
2018-10-19T09:43:52.298Z,55.57
2018-10-19T09:44:52.356Z,55.35
2018-10-19T09:45:52.296Z,55.65
2018-10-19T09:46:52.334Z,55.26
2018-10-19T09:47:52.360Z,55.57
2018-10-19T09:48:52.392Z,55.57
2018-10-19T09:49:52.473Z,55.47
2018-10-19T09:50:52.461Z,55.47
2018-10-19T09:51:52.580Z,55.47
2018-10-19T09:52:52.886Z,55.47
2018-10-19T09:53:52.547Z,55.38
2018-10-19T09:54:52.695Z,55.67
2018-10-19T09:55:52.616Z,55.67
2018-10-19T09:56:52.792Z,55.47
2018-10-19T09:57:52.710Z,55.47
2018-10-19T09:58:53.128Z,54.90
2018-10-19T09:59:52.791Z,55.57
2018-10-19T10:00:52.890Z,55.09
2018-10-19T10:01:52.870Z,55.19
2018-10-19T10:02:52.896Z,55.47
2018-10-19T10:03:53.047Z,55.38
2018-10-19T10:04:53.222Z,55.47
2018-10-19T10:05:52.997Z,55.09
2018-10-19T10:06:53.031Z,55.19
2018-10-19T10:07:53.099Z,54.99
2018-10-19T10:08:53.255Z,55.29
2018-10-19T10:09:53.109Z,55.19
2018-10-19T10:10:53.152Z,55.29
2018-10-19T10:11:53.180Z,55.29
2018-10-19T10:12:53.216Z,55.47
2018-10-19T10:13:53.230Z,55.19
2018-10-19T10:14:53.456Z,54.80
2018-10-19T10:15:53.428Z,54.71
2018-10-19T10:16:53.337Z,54.90
2018-10-19T10:17:53.328Z,54.80
2018-10-19T10:18:53.393Z,54.71
2018-10-19T10:19:53.444Z,54.61
2018-10-19T10:20:53.455Z,54.71
2018-10-19T10:21:53.463Z,54.90
2018-10-19T10:22:53.467Z,54.32
2018-10-19T10:23:53.800Z,54.35
2018-10-19T10:24:53.693Z,54.41
2018-10-19T10:25:53.610Z,54.35
2018-10-19T10:26:53.598Z,54.53
2018-10-19T10:27:53.702Z,54.80
2018-10-19T10:28:53.656Z,54.71
2018-10-19T10:29:53.741Z,54.61
2018-10-19T10:30:53.805Z,54.71
2018-10-19T10:31:53.877Z,54.73
2018-10-19T10:32:53.789Z,54.63
2018-10-19T10:33:53.831Z,54.51
2018-10-19T10:34:53.906Z,54.53
2018-10-19T10:35:53.933Z,54.61
2018-10-19T10:36:53.971Z,54.41
2018-10-19T10:37:53.959Z,54.44
2018-10-19T10:38:54.119Z,54.44
2018-10-19T10:39:54.061Z,54.71
2018-10-19T10:40:54.104Z,54.83
2018-10-19T10:41:54.090Z,54.63
2018-10-19T10:42:54.459Z,54.53
2018-10-19T10:43:54.152Z,54.63
2018-10-19T10:44:54.165Z,54.25
2018-10-19T10:45:54.306Z,54.73
2018-10-19T10:46:54.278Z,54.35
2018-10-19T10:47:54.327Z,54.61
2018-10-19T10:48:54.686Z,54.63
2018-10-19T10:49:54.332Z,54.63
2018-10-19T10:50:54.407Z,54.53
2018-10-19T10:51:54.502Z,54.73
2018-10-19T10:52:54.480Z,54.73
2018-10-19T10:53:54.454Z,54.83
2018-10-19T10:54:54.840Z,54.73
2018-10-19T10:55:54.595Z,54.63
2018-10-19T10:56:54.549Z,54.25
2018-10-19T10:57:54.643Z,54.63
2018-10-19T10:58:54.611Z,54.35
2018-10-19T10:59:54.651Z,54.15
2018-10-19T11:00:54.765Z,53.96
2018-10-19T11:01:55.039Z,54.35
2018-10-19T11:02:55.311Z,54.35
2018-10-19T11:03:54.791Z,54.35
2018-10-19T11:04:54.856Z,54.13
2018-10-19T11:05:55.016Z,53.93
2018-10-19T11:06:54.927Z,54.05
2018-10-19T11:07:54.953Z,53.86
2018-10-19T11:08:55.291Z,53.96
2018-10-19T11:09:55.429Z,54.05
2018-10-19T11:10:55.069Z,54.15
2018-10-19T11:11:55.117Z,54.03
2018-10-19T11:12:55.571Z,54.25
2018-10-19T11:13:55.160Z,54.15
2018-10-19T11:14:55.240Z,54.15
2018-10-19T11:15:55.237Z,54.15
2018-10-19T11:16:55.239Z,54.15
2018-10-19T11:17:55.272Z,54.03
2018-10-19T11:18:55.310Z,53.96
2018-10-19T11:19:55.337Z,53.96
2018-10-19T11:20:55.317Z,54.35
2018-10-19T11:21:55.457Z,54.25
2018-10-19T11:22:55.479Z,54.32
2018-10-19T11:23:55.748Z,54.15
2018-10-19T11:24:55.492Z,54.35
2018-10-19T11:25:55.480Z,54.35
2018-10-19T11:26:55.555Z,54.25
2018-10-19T11:27:56.123Z,54.35
2018-10-19T11:28:55.627Z,54.25
2018-10-19T11:29:55.606Z,54.25
2018-10-19T11:30:55.698Z,53.57
2018-10-19T11:31:55.724Z,53.77
2018-10-19T11:32:55.705Z,53.77
2018-10-19T11:33:56.159Z,53.67
2018-10-19T11:34:55.820Z,53.96
2018-10-19T11:35:55.950Z,53.77
2018-10-19T11:36:55.886Z,53.96
2018-10-19T11:37:55.907Z,53.86
2018-10-19T11:38:55.946Z,53.96
2018-10-19T11:39:56.276Z,53.96
2018-10-19T11:40:55.965Z,53.77
2018-10-19T11:41:56.688Z,53.86
2018-10-19T11:42:56.218Z,53.86
2018-10-19T11:43:56.112Z,53.86
2018-10-19T11:44:56.139Z,53.96
2018-10-19T11:45:56.251Z,53.96
2018-10-19T11:46:56.157Z,53.77
2018-10-19T11:47:56.245Z,53.96
2018-10-19T11:48:56.252Z,53.86
2018-10-19T11:49:56.253Z,53.67
2018-10-19T11:51:56.377Z,53.57
2018-10-19T11:52:56.397Z,54.05
2018-10-19T11:53:56.433Z,53.86
2018-10-19T11:54:56.415Z,53.96
2018-10-19T11:55:56.447Z,54.05
2018-10-19T11:56:56.491Z,54.05
2018-10-19T11:57:56.553Z,54.05
2018-10-19T11:58:56.601Z,54.15
2018-10-19T11:59:56.627Z,54.05
2018-10-19T12:00:56.670Z,54.15
2018-10-19T12:01:56.645Z,54.15
2018-10-19T12:02:56.675Z,54.15
2018-10-19T12:03:56.768Z,53.57
2018-10-19T12:04:56.789Z,53.77
2018-10-19T12:05:56.821Z,53.28
2018-10-19T12:06:56.813Z,53.28
2018-10-19T12:07:56.893Z,53.57
2018-10-19T12:08:56.865Z,53.38
2018-10-19T12:09:56.996Z,53.38
2018-10-19T12:10:57.231Z,53.57
2018-10-19T12:11:56.972Z,53.38
2018-10-19T12:12:57.030Z,53.38
2018-10-19T12:13:57.028Z,53.28
2018-10-19T12:14:57.169Z,53.47
2018-10-19T12:15:57.222Z,53.38
2018-10-19T12:16:57.296Z,53.47
2018-10-19T12:17:57.207Z,53.47
2018-10-19T12:18:57.261Z,53.47
2018-10-19T12:19:57.274Z,53.41
2018-10-19T12:20:57.324Z,53.47
2018-10-19T12:21:57.296Z,53.47
2018-10-19T12:22:57.327Z,53.28
2018-10-19T12:23:57.357Z,53.38
2018-10-19T12:24:57.461Z,53.09
2018-10-19T12:25:57.434Z,53.02
2018-10-19T12:26:57.478Z,53.47
2018-10-19T12:27:57.533Z,53.47
2018-10-19T12:28:57.517Z,53.19
2018-10-19T12:29:57.598Z,53.19
2018-10-19T12:30:57.656Z,53.09
2018-10-19T12:31:57.616Z,52.89
2018-10-19T12:32:57.742Z,53.19
2018-10-19T12:33:57.732Z,52.89
2018-10-19T12:34:58.015Z,53.28
2018-10-19T12:35:57.793Z,53.09
2018-10-19T12:36:57.854Z,53.19
2018-10-19T12:37:57.808Z,53.31
2018-10-19T12:38:57.938Z,53.19
2018-10-19T12:39:57.927Z,53.28
2018-10-19T12:40:57.923Z,53.38
2018-10-19T12:41:57.940Z,53.19
2018-10-19T12:42:58.100Z,53.28
2018-10-19T12:43:58.018Z,53.47
2018-10-19T12:44:58.176Z,53.41
2018-10-19T12:45:58.075Z,53.19
2018-10-19T12:46:58.118Z,53.31
2018-10-19T12:47:58.460Z,52.99
2018-10-19T12:48:58.251Z,52.89
2018-10-19T12:49:58.202Z,53.02
2018-10-19T12:50:58.644Z,53.11
2018-10-19T12:51:58.318Z,52.92
2018-10-19T12:52:58.347Z,52.89
2018-10-19T12:53:58.722Z,52.92
2018-10-19T12:54:58.391Z,52.92
2018-10-19T12:55:58.446Z,53.31
2018-10-19T12:56:58.543Z,52.92
2018-10-19T12:57:58.510Z,52.92
2018-10-19T12:58:58.493Z,53.02
2018-10-19T12:59:58.581Z,52.92
2018-10-19T13:00:58.613Z,52.92
2018-10-19T13:01:58.645Z,52.73
2018-10-19T13:02:58.678Z,53.02
2018-10-19T13:03:58.666Z,52.82
2018-10-19T13:04:58.742Z,52.73
2018-10-19T13:05:58.782Z,52.63
2018-10-19T13:06:58.766Z,52.53